Time;durP1;ratioP1;P1;durP2;ratioP2;P2;SDS_P1;SDS_P2;PMS_P1;PMS_P2;Temp;Humidity;BMP_temperature;BMP_pressure;BME280_temperature;BME280_humidity;BME280_pressure;Samples;Min_cycle;Max_cycle;Signal;HPM_P1;HPM_P2
2024/01/20 00:01:20;;;;;;;0.65;0.65;;;5.30;66.80;;;;;;5094645;28;20046;-70
2024/01/20 00:03:45;;;;;;;1.20;1.20;;;5.30;66.80;;;;;;5093566;28;20028;-70
2024/01/20 00:06:11;;;;;;;0.90;0.90;;;5.30;66.60;;;;;;5094034;28;20080;-71
2024/01/20 00:08:36;;;;;;;1.77;1.67;;;5.20;66.70;;;;;;5094063;28;20372;-70
2024/01/20 00:11:02;;;;;;;2.15;1.75;;;5.30;66.70;;;;;;5075806;28;20039;-71
2024/01/20 00:13:27;;;;;;;1.80;1.70;;;5.30;66.80;;;;;;5093862;28;20036;-70
2024/01/20 00:15:53;;;;;;;2.75;2.20;;;5.30;66.70;;;;;;5093702;28;20036;-70
2024/01/20 00:18:18;;;;;;;1.75;1.65;;;5.30;66.70;;;;;;5093975;28;20094;-70
2024/01/20 00:20:45;;;;;;;0.88;0.88;;;5.30;66.70;;;;;;5094386;28;20081;-70
2024/01/20 00:23:11;;;;;;;1.65;1.55;;;5.30;66.90;;;;;;5093638;28;20025;-71
2024/01/20 00:25:37;;;;;;;1.65;1.55;;;5.30;66.90;;;;;;5093983;28;20458;-70
2024/01/20 00:28:03;;;;;;;1.00;1.00;;;5.30;66.80;;;;;;5093349;28;20030;-71
2024/01/20 00:30:29;;;;;;;0.80;0.80;;;5.30;66.60;;;;;;5093881;28;20028;-71
2024/01/20 00:32:55;;;;;;;0.77;0.77;;;5.30;66.80;;;;;;5093445;28;20090;-70
2024/01/20 00:35:20;;;;;;;0.88;0.88;;;5.30;66.60;;;;;;5093768;28;20032;-70
2024/01/20 00:37:46;;;;;;;2.08;1.98;;;5.30;66.80;;;;;;5093092;28;20240;-70
2024/01/20 00:40:11;;;;;;;2.33;1.70;;;5.30;66.90;;;;;;5093443;28;20388;-70
2024/01/20 00:42:37;;;;;;;0.85;0.85;;;5.30;66.90;;;;;;5093044;28;20040;-71
2024/01/20 00:45:04;;;;;;;0.65;0.65;;;5.30;67.00;;;;;;5093272;28;20028;-70
2024/01/20 00:47:30;;;;;;;1.38;1.30;;;5.40;66.90;;;;;;5093121;28;20081;-70
2024/01/20 00:49:56;;;;;;;0.93;0.93;;;5.40;66.70;;;;;;5092931;28;20024;-70
2024/01/20 00:52:21;;;;;;;1.20;1.20;;;5.30;66.70;;;;;;5074861;28;20024;-71
2024/01/20 00:54:47;;;;;;;2.40;2.20;;;5.40;66.80;;;;;;5093181;28;20030;-71
2024/01/20 00:57:12;;;;;;;1.10;1.10;;;5.30;67.00;;;;;;5093050;28;20387;-70
2024/01/20 00:59:38;;;;;;;1.90;1.80;;;5.40;67.00;;;;;;5093159;28;20722;-71
2024/01/20 01:02:04;;;;;;;1.17;1.15;;;5.40;66.80;;;;;;5092737;28;20025;-71
2024/01/20 01:04:29;;;;;;;1.92;1.83;;;5.40;66.80;;;;;;5092299;28;20032;-71
2024/01/20 01:06:55;;;;;;;0.75;0.75;;;5.40;66.70;;;;;;5092747;28;20058;-70
2024/01/20 01:09:20;;;;;;;1.15;1.15;;;5.30;66.70;;;;;;5092648;28;20028;-71
2024/01/20 01:11:46;;;;;;;1.27;1.20;;;5.30;67.00;;;;;;5092813;28;20032;-70
2024/01/20 01:14:12;;;;;;;1.20;1.20;;;5.40;67.00;;;;;;5092643;28;20028;-71
2024/01/20 01:16:38;;;;;;;3.65;2.40;;;5.40;66.90;;;;;;5092740;28;20391;-71
2024/01/20 01:19:03;;;;;;;1.00;1.00;;;5.40;66.90;;;;;;5092656;28;20032;-70
2024/01/20 01:21:29;;;;;;;1.27;1.23;;;5.40;66.70;;;;;;5092639;28;20035;-70
2024/01/20 01:23:54;;;;;;;1.20;1.20;;;5.40;66.90;;;;;;5074174;28;20028;-70
2024/01/20 01:26:20;;;;;;;0.95;0.95;;;5.40;67.00;;;;;;5092359;28;20024;-70
2024/01/20 01:28:46;;;;;;;4.53;1.90;;;5.40;66.90;;;;;;5092499;28;20414;-70
2024/01/20 01:31:12;;;;;;;1.60;1.50;;;5.40;66.90;;;;;;5093427;28;20063;-70
2024/01/20 01:33:38;;;;;;;0.88;0.88;;;5.40;66.70;;;;;;5092595;28;20024;-70
2024/01/20 01:36:04;;;;;;;17.88;2.13;;;5.40;67.10;;;;;;5093190;28;20471;-71
2024/01/20 01:38:29;;;;;;;2.38;1.52;;;5.40;67.00;;;;;;5092677;28;20024;-71
2024/01/20 01:40:55;;;;;;;0.70;0.70;;;5.50;66.80;;;;;;5093140;28;20495;-70
2024/01/20 01:43:20;;;;;;;0.90;0.90;;;5.40;67.00;;;;;;5092446;28;20039;-70
2024/01/20 01:45:46;;;;;;;1.08;1.08;;;5.50;67.00;;;;;;5092670;28;20033;-70
2024/01/20 01:48:11;;;;;;;1.23;1.23;;;5.50;66.90;;;;;;5092516;28;20036;-71
2024/01/20 01:50:37;;;;;;;1.80;1.70;;;5.50;66.90;;;;;;5092781;28;20032;-71
2024/01/20 01:53:03;;;;;;;1.15;1.15;;;5.50;66.80;;;;;;5092427;28;20040;-71
2024/01/20 01:55:30;;;;;;;2.67;1.23;;;5.50;66.80;;;;;;5092420;28;20150;-70
2024/01/20 01:57:56;;;;;;;0.80;0.80;;;5.50;66.90;;;;;;5092471;28;20050;-70
2024/01/20 02:00:22;;;;;;;2.00;1.80;;;5.50;66.70;;;;;;5092851;28;20030;-71
2024/01/20 02:02:48;;;;;;;1.60;1.50;;;5.50;66.80;;;;;;5096563;28;20036;-70
2024/01/20 02:05:13;;;;;;;1.00;1.00;;;5.50;66.80;;;;;;5095443;28;20119;-70
2024/01/20 02:07:42;;;;;;;0.85;0.85;;;5.50;66.70;;;;;;5094806;28;20024;-70
2024/01/20 02:10:09;;;;;;;1.35;1.30;;;5.50;66.70;;;;;;5095049;28;20030;-70
2024/01/20 02:12:35;;;;;;;1.30;1.20;;;5.40;66.60;;;;;;5094836;28;20226;-70
2024/01/20 02:15:01;;;;;;;1.60;1.50;;;5.50;66.40;;;;;;5094887;28;20059;-70
2024/01/20 02:17:27;;;;;;;1.45;1.35;;;5.50;66.40;;;;;;5094990;28;20036;-70
2024/01/20 02:19:52;;;;;;;2.38;2.05;;;5.40;66.60;;;;;;5094636;28;20032;-71
2024/01/20 02:22:18;;;;;;;0.50;0.50;;;5.50;66.50;;;;;;5076089;28;20032;-71
2024/01/20 02:24:48;;;;;;;0.70;0.70;;;5.40;66.30;;;;;;5094158;28;20073;-71
2024/01/20 02:27:15;;;;;;;1.00;1.00;;;5.40;66.40;;;;;;5094629;28;20038;-71
2024/01/20 02:29:41;;;;;;;3.13;2.38;;;5.40;66.40;;;;;;5094418;28;20028;-71
2024/01/20 02:32:07;;;;;;;2.50;1.48;;;5.40;66.30;;;;;;5094310;28;20419;-70
2024/01/20 02:34:33;;;;;;;0.80;0.80;;;5.40;66.20;;;;;;5094427;28;20028;-70
2024/01/20 02:36:59;;;;;;;2.88;2.58;;;5.40;66.20;;;;;;5094430;28;20032;-71
2024/01/20 02:39:24;;;;;;;1.42;1.33;;;5.40;66.30;;;;;;5076025;28;20110;-70
2024/01/20 02:41:50;;;;;;;1.38;1.27;;;5.40;66.30;;;;;;5094507;28;20028;-70
2024/01/20 02:44:17;;;;;;;1.52;1.42;;;5.30;66.30;;;;;;5093979;28;20077;-70
2024/01/20 02:46:42;;;;;;;12.65;2.60;;;5.30;66.30;;;;;;5094111;28;20040;-70
2024/01/20 02:49:08;;;;;;;3.58;2.42;;;5.30;66.40;;;;;;5093914;28;20024;-71
2024/01/20 02:51:33;;;;;;;0.68;0.68;;;5.30;66.20;;;;;;5094136;28;20027;-71
2024/01/20 02:53:59;;;;;;;0.95;0.95;;;5.30;65.90;;;;;;5093910;28;20301;-71
2024/01/20 02:56:25;;;;;;;0.80;0.80;;;5.30;65.90;;;;;;5094446;28;20043;-70
2024/01/20 02:58:51;;;;;;;0.60;0.60;;;5.30;65.90;;;;;;5094124;28;20028;-71
2024/01/20 03:01:16;;;;;;;0.80;0.80;;;5.20;65.70;;;;;;5094371;28;20028;-70
2024/01/20 03:03:42;;;;;;;1.27;1.27;;;5.20;65.70;;;;;;5051983;28;1035663;-70
2024/01/20 03:06:08;;;;;;;2.40;1.23;;;5.20;65.90;;;;;;5095533;28;20026;-70
2024/01/20 03:08:33;;;;;;;0.77;0.77;;;5.10;65.90;;;;;;5095286;28;20070;-70
2024/01/20 03:10:59;;;;;;;4.78;4.05;;;5.10;65.70;;;;;;5095367;28;20379;-70
2024/01/20 03:13:24;;;;;;;0.77;0.77;;;5.10;65.80;;;;;;5094976;28;20036;-70
2024/01/20 03:15:50;;;;;;;1.60;1.50;;;5.10;65.80;;;;;;5076659;28;20126;-71
2024/01/20 03:18:15;;;;;;;1.67;1.58;;;5.10;65.90;;;;;;5094983;28;20030;-70
2024/01/20 03:20:41;;;;;;;2.67;1.30;;;5.00;65.60;;;;;;5094605;28;20039;-70
2024/01/20 03:23:06;;;;;;;1.17;1.17;;;5.00;65.60;;;;;;5095091;28;20482;-70
2024/01/20 03:25:32;;;;;;;1.60;1.48;;;4.90;65.20;;;;;;5094727;28;20032;-70
2024/01/20 03:27:57;;;;;;;0.60;0.60;;;4.90;65.50;;;;;;5094267;28;20133;-70
2024/01/20 03:30:23;;;;;;;1.05;1.05;;;4.90;65.70;;;;;;5094424;28;20378;-70
2024/01/20 03:32:50;;;;;;;0.73;0.73;;;4.90;65.40;;;;;;5094003;28;20028;-70
2024/01/20 03:35:16;;;;;;;1.17;1.17;;;4.80;65.60;;;;;;5094208;28;20030;-70
2024/01/20 03:37:41;;;;;;;0.90;0.90;;;4.80;65.40;;;;;;5093934;28;20531;-70
2024/01/20 03:40:08;;;;;;;0.57;0.57;;;4.70;65.20;;;;;;5094233;28;20028;-70
2024/01/20 03:42:33;;;;;;;0.73;0.73;;;4.70;65.20;;;;;;5093852;28;20025;-70
2024/01/20 03:44:59;;;;;;;0.65;0.65;;;4.70;65.20;;;;;;5093621;28;20078;-70
2024/01/20 03:47:24;;;;;;;0.70;0.70;;;4.70;65.30;;;;;;5093795;28;20056;-70
2024/01/20 03:49:50;;;;;;;1.85;1.27;;;4.60;65.20;;;;;;5093648;28;20055;-70
2024/01/20 03:52:15;;;;;;;2.35;2.15;;;4.60;65.00;;;;;;5093620;28;20058;-70
2024/01/20 03:54:42;;;;;;;0.68;0.68;;;4.50;64.90;;;;;;5093521;28;20032;-70
2024/01/20 03:57:08;;;;;;;1.17;1.15;;;4.50;64.90;;;;;;5093624;28;20372;-70
2024/01/20 03:59:33;;;;;;;1.08;1.08;;;4.40;64.70;;;;;;5093380;28;20029;-71
2024/01/20 04:01:59;;;;;;;1.50;1.40;;;4.30;64.40;;;;;;5093031;28;20592;-70
2024/01/20 04:04:24;;;;;;;1.00;1.00;;;4.30;64.50;;;;;;5093115;28;20111;-70
2024/01/20 04:06:50;;;;;;;0.63;0.63;;;4.20;64.40;;;;;;5093144;28;20387;-70
2024/01/20 04:09:15;;;;;;;1.38;1.27;;;4.20;64.10;;;;;;5093344;28;20028;-70
2024/01/20 04:11:41;;;;;;;0.70;0.70;;;4.10;64.00;;;;;;5093146;28;20436;-70
2024/01/20 04:14:06;;;;;;;6.95;2.10;;;4.00;63.90;;;;;;5092844;28;20027;-70
2024/01/20 04:16:32;;;;;;;5.05;2.00;;;4.00;64.00;;;;;;5093190;28;20048;-70
2024/01/20 04:18:57;;;;;;;0.70;0.70;;;3.80;64.00;;;;;;5092954;28;20042;-70
2024/01/20 04:21:23;;;;;;;1.13;1.02;;;3.80;64.20;;;;;;5093534;28;20036;-70
2024/01/20 04:23:49;;;;;;;0.88;0.88;;;3.80;64.10;;;;;;5092358;28;20475;-70
2024/01/20 04:26:16;;;;;;;0.98;0.95;;;3.70;64.00;;;;;;5093567;28;20055;-70
2024/01/20 04:28:41;;;;;;;1.40;1.08;;;3.70;64.10;;;;;;5092982;28;20020;-68
2024/01/20 04:31:07;;;;;;;1.40;1.30;;;3.60;64.10;;;;;;5093231;28;20101;-68
2024/01/20 04:33:34;;;;;;;1.15;1.15;;;3.60;64.10;;;;;;5092686;28;20141;-68
2024/01/20 04:36:01;;;;;;;1.55;1.45;;;3.60;64.00;;;;;;5093040;28;20034;-68
2024/01/20 04:38:26;;;;;;;1.48;1.38;;;3.50;64.10;;;;;;5092680;28;20059;-67
2024/01/20 04:40:53;;;;;;;0.70;0.70;;;3.50;64.30;;;;;;5093058;28;20471;-67
2024/01/20 04:43:19;;;;;;;0.77;0.77;;;3.50;64.40;;;;;;5092691;28;20031;-67
2024/01/20 04:45:44;;;;;;;0.80;0.80;;;3.50;64.50;;;;;;5092744;28;20036;-67
2024/01/20 04:48:10;;;;;;;1.20;1.20;;;3.50;64.50;;;;;;5092448;28;20055;-67
2024/01/20 04:50:35;;;;;;;0.82;0.82;;;3.50;64.70;;;;;;5092806;28;20113;-67
2024/01/20 04:53:01;;;;;;;0.85;0.85;;;3.50;64.80;;;;;;5092227;28;20036;-67
2024/01/20 04:55:26;;;;;;;1.08;1.08;;;3.50;64.90;;;;;;5092238;28;20078;-68
2024/01/20 04:57:52;;;;;;;1.27;1.25;;;3.50;64.90;;;;;;5092328;28;20038;-67
2024/01/20 05:00:17;;;;;;;1.08;1.08;;;3.50;64.80;;;;;;5092438;28;20043;-67
2024/01/20 05:02:43;;;;;;;1.60;1.50;;;3.50;64.60;;;;;;5092186;28;20483;-68
2024/01/20 05:05:08;;;;;;;0.70;0.70;;;3.50;64.50;;;;;;5092129;28;20378;-67
2024/01/20 05:07:34;;;;;;;1.85;1.75;;;3.40;64.50;;;;;;5092007;28;20027;-67
2024/01/20 05:10:00;;;;;;;1.77;1.67;;;3.50;64.70;;;;;;5092157;28;20031;-67
2024/01/20 05:12:26;;;;;;;1.83;1.73;;;3.50;64.90;;;;;;5092352;28;20487;-67
2024/01/20 05:14:55;;;;;;;1.00;1.00;;;3.50;65.10;;;;;;5092129;28;20059;-66
2024/01/20 05:17:21;;;;;;;1.55;1.45;;;3.60;65.30;;;;;;5092128;28;20062;-67
2024/01/20 05:19:46;;;;;;;1.00;1.00;;;3.70;65.50;;;;;;5092025;28;20039;-67
2024/01/20 05:22:12;;;;;;;2.80;2.60;;;3.70;65.70;;;;;;5091881;28;20020;-67
2024/01/20 05:24:37;;;;;;;0.68;0.68;;;3.80;66.00;;;;;;5091878;28;20036;-67
2024/01/20 05:27:03;;;;;;;1.25;1.23;;;3.90;65.90;;;;;;5091723;28;20035;-68
2024/01/20 05:29:31;;;;;;;1.08;0.98;;;3.90;65.90;;;;;;5092097;28;20108;-67
2024/01/20 05:31:57;;;;;;;0.95;0.95;;;4.00;65.90;;;;;;5091921;28;20039;-67
2024/01/20 05:34:22;;;;;;;0.80;0.80;;;4.00;65.80;;;;;;5091502;28;20484;-67
2024/01/20 05:36:48;;;;;;;0.82;0.82;;;4.10;65.90;;;;;;5091694;28;20028;-67
2024/01/20 05:39:13;;;;;;;7.32;2.45;;;4.10;65.70;;;;;;5091881;28;20028;-70
2024/01/20 05:41:39;;;;;;;1.35;1.33;;;4.10;65.90;;;;;;5091888;28;20396;-70
2024/01/20 05:44:07;;;;;;;1.55;1.45;;;4.20;65.80;;;;;;5091737;28;20051;-70
2024/01/20 05:46:33;;;;;;;1.40;1.25;;;4.20;65.80;;;;;;5092082;28;20028;-70
2024/01/20 05:48:58;;;;;;;20.27;2.67;;;4.20;65.80;;;;;;5091649;28;20020;-70
2024/01/20 05:51:24;;;;;;;2.60;2.40;;;4.30;65.70;;;;;;5092127;28;20027;-70
2024/01/20 05:53:50;;;;;;;5.38;3.17;;;4.30;65.80;;;;;;5091823;28;20032;-70
2024/01/20 05:56:15;;;;;;;0.80;0.80;;;4.30;65.90;;;;;;5092124;28;20475;-70
2024/01/20 05:58:41;;;;;;;1.45;1.35;;;4.30;65.70;;;;;;5091900;28;20058;-70
2024/01/20 06:01:09;;;;;;;0.82;0.82;;;4.30;65.70;;;;;;5092334;28;20055;-70
2024/01/20 06:03:35;;;;;;;1.27;1.20;;;4.30;65.80;;;;;;5091838;28;20031;-70
2024/01/20 06:06:00;;;;;;;1.80;1.70;;;4.40;65.70;;;;;;5091383;28;20028;-70
2024/01/20 06:08:26;;;;;;;0.70;0.70;;;4.30;65.60;;;;;;5092154;28;20157;-70
2024/01/20 06:10:52;;;;;;;0.70;0.70;;;4.40;65.40;;;;;;5091674;28;20476;-70
2024/01/20 06:13:17;;;;;;;2.67;2.25;;;4.40;65.30;;;;;;5092034;28;20161;-70
2024/01/20 06:15:42;;;;;;;1.17;1.17;;;4.40;65.60;;;;;;5091744;28;20093;-70
2024/01/20 06:18:08;;;;;;;0.88;0.88;;;4.40;65.70;;;;;;5092303;28;20063;-70
2024/01/20 06:20:33;;;;;;;1.15;1.15;;;4.40;65.30;;;;;;5091813;28;20032;-70
2024/01/20 06:22:59;;;;;;;2.88;1.73;;;4.40;65.40;;;;;;5091915;28;20043;-70
2024/01/20 06:25:24;;;;;;;1.65;1.55;;;4.40;65.40;;;;;;5091654;28;20047;-70
2024/01/20 06:27:50;;;;;;;1.80;1.70;;;4.40;65.40;;;;;;5091955;28;20374;-70
2024/01/20 06:30:16;;;;;;;1.42;1.33;;;4.40;65.50;;;;;;5091524;28;20036;-70
2024/01/20 06:32:41;;;;;;;1.25;1.20;;;4.40;65.50;;;;;;5092054;28;20059;-70
2024/01/20 06:35:08;;;;;;;0.90;0.90;;;4.40;65.10;;;;;;5091535;28;20383;-70
2024/01/20 06:37:34;;;;;;;1.55;1.45;;;4.40;65.40;;;;;;5091858;28;20039;-70
2024/01/20 06:39:59;;;;;;;1.63;1.52;;;4.40;65.50;;;;;;5091303;28;20024;-70
2024/01/20 06:42:25;;;;;;;1.40;1.30;;;4.40;65.20;;;;;;5073231;28;20111;-70
2024/01/20 06:44:51;;;;;;;1.50;1.40;;;4.40;65.40;;;;;;5091512;28;20031;-70
2024/01/20 06:47:17;;;;;;;1.13;1.13;;;4.50;65.60;;;;;;5093419;28;20024;-70
2024/01/20 06:49:43;;;;;;;1.30;1.30;;;4.50;65.50;;;;;;5095592;28;20036;-70
2024/01/20 06:52:09;;;;;;;0.60;0.60;;;4.50;65.10;;;;;;5095140;28;20028;-70
2024/01/20 06:54:35;;;;;;;1.60;1.50;;;4.40;65.10;;;;;;5076615;28;20118;-70
2024/01/20 06:57:00;;;;;;;1.98;1.88;;;4.40;65.20;;;;;;5095168;28;20063;-70
2024/01/20 06:59:26;;;;;;;2.88;1.50;;;4.40;65.20;;;;;;5094816;28;20047;-70
2024/01/20 07:01:51;;;;;;;0.75;0.75;;;4.40;65.20;;;;;;5094859;28;20474;-70
2024/01/20 07:04:17;;;;;;;1.00;1.00;;;4.40;65.20;;;;;;5094915;28;20036;-70
2024/01/20 07:06:42;;;;;;;0.80;0.80;;;4.50;65.00;;;;;;5094962;28;20032;-70
2024/01/20 07:09:08;;;;;;;1.20;1.20;;;4.40;64.90;;;;;;5094608;28;20387;-70
2024/01/20 07:11:33;;;;;;;2.60;1.52;;;4.40;64.80;;;;;;5094621;28;20020;-70
2024/01/20 07:13:59;;;;;;;1.10;1.10;;;4.40;64.80;;;;;;5094808;28;20387;-70
2024/01/20 07:16:24;;;;;;;1.00;1.00;;;4.40;65.00;;;;;;5094359;28;20086;-70
2024/01/20 07:18:49;;;;;;;3.70;3.40;;;4.40;64.90;;;;;;5094678;28;20043;-70
2024/01/20 07:21:15;;;;;;;2.72;2.53;;;4.40;65.00;;;;;;5094449;28;20032;-70
2024/01/20 07:23:41;;;;;;;1.08;1.08;;;4.40;65.20;;;;;;5094374;28;20067;-70
2024/01/20 07:26:06;;;;;;;2.10;1.38;;;4.40;64.60;;;;;;5076042;28;20076;-70
2024/01/20 07:28:32;;;;;;;2.08;1.88;;;4.30;64.60;;;;;;5094444;28;20039;-70
2024/01/20 07:30:58;;;;;;;0.93;0.93;;;4.30;64.70;;;;;;5094339;28;20028;-70
2024/01/20 07:33:23;;;;;;;2.03;1.88;;;4.30;64.90;;;;;;5095117;28;20031;-70
2024/01/20 07:35:49;;;;;;;1.23;1.23;;;4.30;65.20;;;;;;5094254;28;20488;-70
2024/01/20 07:38:14;;;;;;;1.70;1.60;;;4.40;65.10;;;;;;5094700;28;20039;-70
2024/01/20 07:40:40;;;;;;;2.60;1.73;;;4.40;64.90;;;;;;5093867;28;20048;-70
2024/01/20 07:43:06;;;;;;;1.00;1.00;;;4.40;64.80;;;;;;5094305;28;20090;-70
2024/01/20 07:45:32;;;;;;;1.00;1.00;;;4.40;65.00;;;;;;5093922;28;20493;-70
2024/01/20 07:48:01;;;;;;;1.45;1.35;;;4.40;65.20;;;;;;5093998;28;20020;-70
2024/01/20 07:50:27;;;;;;;0.70;0.70;;;4.50;65.10;;;;;;5094099;28;20028;-70
2024/01/20 07:52:52;;;;;;;2.65;2.45;;;4.50;64.70;;;;;;5094223;28;20418;-70
2024/01/20 07:55:18;;;;;;;0.60;0.60;;;4.50;64.60;;;;;;5093771;28;20551;-70
2024/01/20 07:57:43;;;;;;;0.90;0.90;;;4.40;64.90;;;;;;5093198;28;20583;-70
2024/01/20 08:00:10;;;;;;;0.98;0.98;;;4.50;65.00;;;;;;5093358;28;20048;-70
2024/01/20 08:02:37;;;;;;;1.00;1.00;;;4.50;65.30;;;;;;5094015;28;20042;-70
2024/01/20 08:05:02;;;;;;;2.63;2.47;;;4.50;65.20;;;;;;5093613;28;20028;-70
2024/01/20 08:07:28;;;;;;;3.35;2.97;;;4.50;65.00;;;;;;5094039;28;20097;-70
2024/01/20 08:09:54;;;;;;;1.17;1.17;;;4.60;65.10;;;;;;5093611;28;20036;-70
2024/01/20 08:12:19;;;;;;;1.67;1.58;;;4.60;65.20;;;;;;5093854;28;20080;-70
2024/01/20 08:14:45;;;;;;;0.80;0.80;;;4.60;65.30;;;;;;5093143;28;20106;-70
2024/01/20 08:17:10;;;;;;;2.10;2.00;;;4.70;65.60;;;;;;5093564;28;20084;-70
2024/01/20 08:19:36;;;;;;;1.60;1.48;;;4.70;64.80;;;;;;5093309;28;20109;-70
2024/01/20 08:22:01;;;;;;;1.83;1.42;;;4.80;65.00;;;;;;5093422;28;20030;-70
2024/01/20 08:24:27;;;;;;;4.13;2.22;;;4.80;64.60;;;;;;5093179;28;20032;-70
2024/01/20 08:26:52;;;;;;;2.03;1.83;;;4.70;64.70;;;;;;5093696;28;20136;-70
2024/01/20 08:29:18;;;;;;;3.20;2.83;;;4.70;64.90;;;;;;5074703;28;20042;-70
2024/01/20 08:31:44;;;;;;;1.15;1.15;;;4.80;65.30;;;;;;5093321;28;20461;-70
2024/01/20 08:34:09;;;;;;;0.73;0.73;;;4.90;65.40;;;;;;5092858;28;20046;-70
2024/01/20 08:36:35;;;;;;;1.52;1.42;;;4.90;65.70;;;;;;5093379;28;20085;-70
2024/01/20 08:39:00;;;;;;;1.67;1.48;;;5.00;65.70;;;;;;5092732;28;20043;-70
2024/01/20 08:41:26;;;;;;;0.70;0.70;;;5.10;65.90;;;;;;5092925;28;20032;-70
2024/01/20 08:43:51;;;;;;;2.63;1.85;;;5.20;65.80;;;;;;5092722;28;20098;-70
2024/01/20 08:46:17;;;;;;;0.80;0.80;;;5.20;65.20;;;;;;5092824;28;20437;-71
2024/01/20 08:48:42;;;;;;;1.05;1.05;;;5.20;65.20;;;;;;5092705;28;20446;-70
2024/01/20 08:51:08;;;;;;;2.35;2.15;;;5.20;65.40;;;;;;5092815;28;20048;-70
2024/01/20 08:53:34;;;;;;;1.88;1.77;;;5.30;65.60;;;;;;5092596;28;20392;-70
2024/01/20 08:56:00;;;;;;;2.22;2.10;;;5.30;65.60;;;;;;5092493;28;20051;-70
2024/01/20 08:58:26;;;;;;;1.00;0.98;;;5.40;65.50;;;;;;5093067;28;20024;-70
2024/01/20 09:00:51;;;;;;;0.63;0.63;;;5.40;65.70;;;;;;5092672;28;20039;-70
2024/01/20 09:03:17;;;;;;;1.83;1.67;;;5.50;65.80;;;;;;5093045;28;20394;-70
2024/01/20 09:05:42;;;;;;;1.23;1.23;;;5.50;65.50;;;;;;5092090;28;20035;-70
2024/01/20 09:08:10;;;;;;;2.75;2.47;;;5.60;65.30;;;;;;5092872;28;20020;-70
2024/01/20 09:10:38;;;;;;;3.70;2.25;;;5.70;65.70;;;;;;5092036;28;20065;-70
2024/01/20 09:13:04;;;;;;;1.27;1.05;;;5.80;65.30;;;;;;5090134;28;20056;-70
2024/01/20 09:15:30;;;;;;;1.02;1.00;;;5.80;65.10;;;;;;5092556;28;20499;-71
2024/01/20 09:17:56;;;;;;;0.70;0.70;;;5.80;64.80;;;;;;5093342;28;20468;-70
2024/01/20 09:20:21;;;;;;;0.80;0.80;;;5.80;64.60;;;;;;5093300;28;20082;-71
2024/01/20 09:22:47;;;;;;;1.23;1.17;;;5.80;64.50;;;;;;5092418;28;20653;-70
2024/01/20 09:25:12;;;;;;;1.35;1.25;;;5.90;64.80;;;;;;5093133;28;20039;-70
2024/01/20 09:27:38;;;;;;;0.93;0.93;;;5.90;64.50;;;;;;5092254;28;20426;-71
2024/01/20 09:30:05;;;;;;;1.67;1.58;;;6.00;64.70;;;;;;5092466;28;20051;-71
2024/01/20 09:32:33;;;;;;;0.75;0.75;;;6.10;64.80;;;;;;5092376;28;20367;-71
2024/01/20 09:35:05;;;;;;;3.83;3.42;;;6.10;65.10;;;;;;5088844;28;20021;-71
2024/01/20 09:37:31;;;;;;;1.85;1.50;;;6.30;64.60;;;;;;5091735;28;20463;-71
2024/01/20 09:39:57;;;;;;;1.40;1.30;;;6.40;64.90;;;;;;5092575;28;20092;-71
2024/01/20 09:42:23;;;;;;;1.77;1.67;;;6.60;65.30;;;;;;5092526;28;20028;-71
2024/01/20 09:44:50;;;;;;;1.15;1.15;;;6.90;66.00;;;;;;5089661;28;20031;-71
2024/01/20 09:47:16;;;;;;;0.80;0.80;;;7.30;66.80;;;;;;5092485;28;20042;-71
2024/01/20 09:49:42;;;;;;;1.95;1.85;;;7.70;68.00;;;;;;5092144;28;20032;-72
2024/01/20 09:52:12;;;;;;;1.15;1.15;;;8.20;68.60;;;;;;5092401;28;20036;-72
2024/01/20 09:54:55;;;;;;;0.80;0.80;;;8.60;69.10;;;;;;5055406;28;20388;-72
2024/01/20 09:57:22;;;;;;;0.60;0.60;;;9.20;68.40;;;;;;5092101;28;20085;-72
2024/01/20 09:59:48;;;;;;;0.95;0.90;;;9.60;66.50;;;;;;5074570;28;20043;-72
2024/01/20 10:02:15;;;;;;;1.48;1.20;;;9.80;65.90;;;;;;5092271;28;20058;-72
2024/01/20 10:04:44;;;;;;;0.50;0.50;;;10.20;65.50;;;;;;5091110;28;20054;-73
2024/01/20 10:07:09;;;;;;;1.67;1.45;;;10.40;64.00;;;;;;5074359;28;20082;-72
2024/01/20 10:09:35;;;;;;;0.80;0.80;;;10.60;62.30;;;;;;5092983;28;20024;-73
2024/01/20 10:12:00;;;;;;;0.60;0.60;;;10.70;61.80;;;;;;5092001;28;20374;-71
2024/01/20 10:14:26;;;;;;;1.45;1.35;;;10.90;62.00;;;;;;5089971;28;20036;-72
2024/01/20 10:16:51;;;;;;;0.88;0.88;;;11.20;62.00;;;;;;5092315;28;20028;-72
2024/01/20 10:19:17;;;;;;;3.92;1.38;;;11.30;60.60;;;;;;5091496;28;20109;-69
2024/01/20 10:21:42;;;;;;;0.90;0.90;;;11.50;60.50;;;;;;5092512;28;20039;-69
2024/01/20 10:24:08;;;;;;;0.88;0.88;;;11.70;60.50;;;;;;5094009;28;20026;-70
2024/01/20 10:26:43;;;;;;;2.13;1.92;;;11.90;61.20;;;;;;5093971;28;20112;-70
2024/01/20 10:29:12;;;;;;;0.70;0.70;;;12.10;60.60;;;;;;5094980;28;20121;-69
2024/01/20 10:31:37;;;;;;;7.82;1.70;;;12.20;59.50;;;;;;5095470;28;20028;-73
2024/01/20 10:34:03;;;;;;;1.58;1.48;;;12.10;58.90;;;;;;5094843;28;20514;-66
2024/01/20 10:36:28;;;;;;;0.55;0.55;;;11.90;56.80;;;;;;5091712;28;20030;-66
2024/01/20 10:38:57;;;;;;;0.60;0.60;;;11.60;56.50;;;;;;5094712;28;20120;-67
2024/01/20 10:41:24;;;;;;;1.33;1.23;;;11.40;57.80;;;;;;5095301;28;20360;-71
2024/01/20 10:44:04;;;;;;;1.48;1.38;;;11.40;58.40;;;;;;5076602;28;20483;-71
2024/01/20 10:46:34;;;;;;;0.70;0.70;;;11.40;59.40;;;;;;5092955;28;20024;-72
2024/01/20 10:49:02;;;;;;;3.83;1.40;;;11.50;59.30;;;;;;5076740;28;20046;-71
2024/01/20 10:51:28;;;;;;;0.95;0.95;;;11.60;60.20;;;;;;5095208;28;20413;-72
2024/01/20 10:53:56;;;;;;;1.20;1.10;;;11.70;60.40;;;;;;5076737;28;20036;-71
2024/01/20 10:56:22;;;;;;;2.38;2.05;;;11.80;59.80;;;;;;5074313;28;20024;-70
2024/01/20 10:58:58;;;;;;;0.90;0.90;;;11.80;58.40;;;;;;5094783;28;20044;-71
2024/01/20 11:01:24;;;;;;;0.70;0.70;;;11.80;57.80;;;;;;5076930;28;20055;-70
2024/01/20 11:03:50;;;;;;;0.88;0.88;;;11.70;57.70;;;;;;5076168;28;20040;-70
2024/01/20 11:06:20;;;;;;;1.67;1.58;;;11.70;59.10;;;;;;5074061;28;20020;-71
2024/01/20 11:08:52;;;;;;;1.25;1.23;;;11.80;59.60;;;;;;5094356;28;20399;-71
2024/01/20 11:11:19;;;;;;;0.60;0.60;;;11.90;60.00;;;;;;5076442;28;20020;-71
2024/01/20 11:13:48;;;;;;;0.55;0.55;;;12.10;60.20;;;;;;5094204;28;20020;-71
2024/01/20 11:16:21;;;;;;;0.60;0.60;;;12.30;60.70;;;;;;5073239;28;20024;-74
2024/01/20 11:18:47;;;;;;;1.25;1.17;;;12.50;57.90;;;;;;5074919;28;20526;-71
2024/01/20 11:21:16;;;;;;;1.25;1.25;;;12.60;57.50;;;;;;5093824;28;20032;-71
2024/01/20 11:23:58;;;;;;;1.77;1.67;;;12.50;56.90;;;;;;5093510;28;20475;-70
2024/01/20 11:26:33;;;;;;;0.77;0.77;;;12.60;57.20;;;;;;5090788;28;20020;-70
2024/01/20 11:28:59;;;;;;;0.95;0.95;;;12.50;55.50;;;;;;5096648;28;20027;-74
2024/01/20 11:31:26;;;;;;;1.00;0.90;;;12.50;55.10;;;;;;5101596;28;20020;-75
2024/01/20 11:33:52;;;;;;;0.80;0.80;;;12.30;54.90;;;;;;5082840;28;20036;-75
2024/01/20 11:36:18;;;;;;;1.65;1.55;;;12.30;55.60;;;;;;5080661;28;20498;-74
2024/01/20 11:38:45;;;;;;;4.18;1.77;;;12.30;56.80;;;;;;5101035;28;20028;-74
2024/01/20 11:41:11;;;;;;;5.68;1.23;;;12.40;56.70;;;;;;5101894;28;20085;-75
2024/01/20 11:43:43;;;;;;;3.15;1.48;;;12.40;56.40;;;;;;5100833;28;20028;-75
2024/01/20 11:46:09;;;;;;;7.03;1.83;;;12.50;56.20;;;;;;5080671;28;20055;-74
2024/01/20 11:48:34;;;;;;;0.80;0.80;;;12.40;55.90;;;;;;5099391;28;20024;-74
2024/01/20 11:51:01;;;;;;;0.88;0.88;;;12.40;54.30;;;;;;5083470;28;20090;-74
2024/01/20 11:53:27;;;;;;;0.90;0.90;;;12.30;55.70;;;;;;5100665;28;20032;-75
2024/01/20 11:55:59;;;;;;;1.30;1.20;;;12.30;56.20;;;;;;5097230;28;20028;-75
2024/01/20 11:58:25;;;;;;;0.70;0.70;;;12.30;56.20;;;;;;5100734;28;20626;-75
2024/01/20 12:00:52;;;;;;;1.10;0.88;;;12.20;54.40;;;;;;5098764;28;20120;-74
2024/01/20 12:03:18;;;;;;;0.77;0.77;;;11.90;53.90;;;;;;5097502;28;20039;-75
2024/01/20 12:05:43;;;;;;;0.60;0.60;;;11.60;54.60;;;;;;5075359;28;20028;-74
2024/01/20 12:08:10;;;;;;;1.77;1.67;;;11.30;54.50;;;;;;5076647;28;20502;-74
2024/01/20 12:10:36;;;;;;;1.67;1.48;;;11.00;53.60;;;;;;5077059;28;20127;-74
2024/01/20 12:13:04;;;;;;;1.55;1.45;;;10.60;54.60;;;;;;5085604;28;20067;-74
2024/01/20 12:15:39;;;;;;;0.52;0.52;;;10.40;55.90;;;;;;5096105;28;20024;-74
2024/01/20 12:18:06;;;;;;;5.15;1.25;;;10.20;56.80;;;;;;5098829;28;20483;-74
2024/01/20 12:20:32;;;;;;;0.95;0.95;;;10.10;57.10;;;;;;5097779;28;20032;-74
2024/01/20 12:22:59;;;;;;;3.17;1.42;;;10.00;57.30;;;;;;5097892;28;20024;-74
2024/01/20 12:25:26;;;;;;;0.50;0.50;;;9.80;56.60;;;;;;5076610;28;20399;-74
2024/01/20 12:27:52;;;;;;;0.70;0.70;;;9.70;57.40;;;;;;5097464;28;20028;-74
2024/01/20 12:30:18;;;;;;;1.23;0.90;;;9.60;57.70;;;;;;5097736;28;20480;-74
2024/01/20 12:32:43;;;;;;;0.50;0.50;;;9.50;57.10;;;;;;5097814;28;20020;-73
2024/01/20 12:35:09;;;;;;;0.93;0.93;;;9.40;57.80;;;;;;5096146;28;20105;-74
2024/01/20 12:37:34;;;;;;;0.60;0.60;;;9.30;57.80;;;;;;5098048;28;20036;-74
2024/01/20 12:40:00;;;;;;;0.80;0.80;;;9.30;57.90;;;;;;5079244;28;20031;-74
2024/01/20 12:42:25;;;;;;;0.95;0.95;;;9.20;57.60;;;;;;5097365;28;20434;-74
2024/01/20 12:44:53;;;;;;;0.68;0.68;;;9.10;57.50;;;;;;5097586;28;20111;-74
2024/01/20 12:47:19;;;;;;;1.17;1.10;;;8.90;57.20;;;;;;5097059;28;20020;-74
2024/01/20 12:49:44;;;;;;;0.70;0.70;;;8.70;57.90;;;;;;5097964;28;20077;-74